sensor_id;sensor_type;location;lat;lon;timestamp;temperature;humidity
24518;DHT22;12678;51.336;12.406;2024-01-10T00:01:33;-6.90;99.90
24518;DHT22;12678;51.336;12.406;2024-01-10T00:03:58;-7.10;99.90
24518;DHT22;12678;51.336;12.406;2024-01-10T00:06:24;-7.10;99.90
24518;DHT22;12678;51.336;12.406;2024-01-10T00:08:50;-7.10;99.90
24518;DHT22;12678;51.336;12.406;2024-01-10T00:11:16;-7.10;99.90
24518;DHT22;12678;51.336;12.406;2024-01-10T00:13:41;-7.20;99.90
24518;DHT22;12678;51.336;12.406;2024-01-10T00:16:07;-7.20;99.90
24518;DHT22;12678;51.336;12.406;2024-01-10T00:18:33;-7.10;99.90
24518;DHT22;12678;51.336;12.406;2024-01-10T00:20:59;-7.10;99.90
24518;DHT22;12678;51.336;12.406;2024-01-10T00:23:25;-7.10;99.90
24518;DHT22;12678;51.336;12.406;2024-01-10T00:25:50;-7.20;99.90
24518;DHT22;12678;51.336;12.406;2024-01-10T00:28:16;-7.20;99.90
24518;DHT22;12678;51.336;12.406;2024-01-10T00:30:45;-7.10;99.90
24518;DHT22;12678;51.336;12.406;2024-01-10T00:33:12;-7.20;99.90
24518;DHT22;12678;51.336;12.406;2024-01-10T00:35:38;-7.10;99.90
24518;DHT22;12678;51.336;12.406;2024-01-10T00:38:04;-7.20;99.90
24518;DHT22;12678;51.336;12.406;2024-01-10T00:40:29;-7.20;99.90
24518;DHT22;12678;51.336;12.406;2024-01-10T00:42:55;-7.30;99.90
24518;DHT22;12678;51.336;12.406;2024-01-10T00:45:20;-7.20;99.90
24518;DHT22;12678;51.336;12.406;2024-01-10T00:47:48;-7.20;99.90
24518;DHT22;12678;51.336;12.406;2024-01-10T00:50:13;-7.20;99.90
24518;DHT22;12678;51.336;12.406;2024-01-10T00:52:39;-7.20;99.90
24518;DHT22;12678;51.336;12.406;2024-01-10T00:55:04;-7.30;99.90
24518;DHT22;12678;51.336;12.406;2024-01-10T00:57:30;-7.20;99.90
24518;DHT22;12678;51.336;12.406;2024-01-10T00:59:56;-7.10;99.90
24518;DHT22;12678;51.336;12.406;2024-01-10T01:02:21;-7.20;99.90
24518;DHT22;12678;51.336;12.406;2024-01-10T01:04:47;-7.20;99.90
24518;DHT22;12678;51.336;12.406;2024-01-10T01:07:12;-7.20;99.90
24518;DHT22;12678;51.336;12.406;2024-01-10T01:09:38;-7.30;99.90
24518;DHT22;12678;51.336;12.406;2024-01-10T01:12:04;-7.40;99.90
24518;DHT22;12678;51.336;12.406;2024-01-10T01:14:30;-7.40;99.90
24518;DHT22;12678;51.336;12.406;2024-01-10T01:16:55;-7.40;99.90
24518;DHT22;12678;51.336;12.406;2024-01-10T01:19:21;-7.30;99.90
24518;DHT22;12678;51.336;12.406;2024-01-10T01:21:46;-7.40;99.90
24518;DHT22;12678;51.336;12.406;2024-01-10T01:24:12;-7.40;99.90
24518;DHT22;12678;51.336;12.406;2024-01-10T01:26:37;-7.40;99.90
24518;DHT22;12678;51.336;12.406;2024-01-10T01:29:03;-7.30;99.90
24518;DHT22;12678;51.336;12.406;2024-01-10T01:31:29;-7.30;99.90
24518;DHT22;12678;51.336;12.406;2024-01-10T01:33:55;-7.20;99.90
24518;DHT22;12678;51.336;12.406;2024-01-10T01:36:21;-7.20;99.90
24518;DHT22;12678;51.336;12.406;2024-01-10T01:38:46;-7.30;99.90
24518;DHT22;12678;51.336;12.406;2024-01-10T01:41:13;-7.40;99.90
24518;DHT22;12678;51.336;12.406;2024-01-10T01:43:40;-7.50;99.90
24518;DHT22;12678;51.336;12.406;2024-01-10T01:46:06;-7.50;99.90
24518;DHT22;12678;51.336;12.406;2024-01-10T01:48:33;-7.50;99.90
24518;DHT22;12678;51.336;12.406;2024-01-10T01:51:06;-7.60;99.90
24518;DHT22;12678;51.336;12.406;2024-01-10T01:53:34;-7.50;99.90
24518;DHT22;12678;51.336;12.406;2024-01-10T01:56:11;-7.60;99.90
24518;DHT22;12678;51.336;12.406;2024-01-10T01:58:38;-7.70;99.90
24518;DHT22;12678;51.336;12.406;2024-01-10T02:01:05;-7.70;99.90
24518;DHT22;12678;51.336;12.406;2024-01-10T02:03:34;-7.80;99.90
24518;DHT22;12678;51.336;12.406;2024-01-10T02:06:00;-7.80;99.90
24518;DHT22;12678;51.336;12.406;2024-01-10T02:08:29;-7.90;99.90
24518;DHT22;12678;51.336;12.406;2024-01-10T02:10:55;-7.80;99.90
24518;DHT22;12678;51.336;12.406;2024-01-10T02:13:20;-7.70;99.90
24518;DHT22;12678;51.336;12.406;2024-01-10T02:15:46;-7.70;99.90
24518;DHT22;12678;51.336;12.406;2024-01-10T02:18:11;-7.60;99.90
24518;DHT22;12678;51.336;12.406;2024-01-10T02:20:39;-7.70;99.90
24518;DHT22;12678;51.336;12.406;2024-01-10T02:23:05;-7.60;99.90
24518;DHT22;12678;51.336;12.406;2024-01-10T02:25:30;-7.70;99.90
24518;DHT22;12678;51.336;12.406;2024-01-10T02:27:56;-7.70;99.90
24518;DHT22;12678;51.336;12.406;2024-01-10T02:30:21;-7.60;99.90
24518;DHT22;12678;51.336;12.406;2024-01-10T02:32:47;-7.60;99.90
24518;DHT22;12678;51.336;12.406;2024-01-10T02:35:12;-7.60;99.90
24518;DHT22;12678;51.336;12.406;2024-01-10T02:37:38;-7.60;99.90
24518;DHT22;12678;51.336;12.406;2024-01-10T02:40:04;-7.70;99.90
24518;DHT22;12678;51.336;12.406;2024-01-10T02:42:30;-7.60;99.90
24518;DHT22;12678;51.336;12.406;2024-01-10T02:44:56;-7.60;99.90
24518;DHT22;12678;51.336;12.406;2024-01-10T02:47:21;-7.60;99.90
24518;DHT22;12678;51.336;12.406;2024-01-10T02:49:47;-7.60;99.90
24518;DHT22;12678;51.336;12.406;2024-01-10T02:52:12;-7.60;99.90
24518;DHT22;12678;51.336;12.406;2024-01-10T02:54:38;-7.60;99.90
24518;DHT22;12678;51.336;12.406;2024-01-10T02:57:03;-7.70;99.90
24518;DHT22;12678;51.336;12.406;2024-01-10T02:59:29;-7.80;99.90
24518;DHT22;12678;51.336;12.406;2024-01-10T03:01:55;-7.90;99.90
24518;DHT22;12678;51.336;12.406;2024-01-10T03:04:20;-8.00;99.90
24518;DHT22;12678;51.336;12.406;2024-01-10T03:06:46;-8.00;99.90
24518;DHT22;12678;51.336;12.406;2024-01-10T03:09:11;-8.10;99.90
24518;DHT22;12678;51.336;12.406;2024-01-10T03:11:37;-8.10;99.90
24518;DHT22;12678;51.336;12.406;2024-01-10T03:14:06;-8.00;99.90
24518;DHT22;12678;51.336;12.406;2024-01-10T03:16:32;-8.00;99.90
24518;DHT22;12678;51.336;12.406;2024-01-10T03:18:58;-8.00;99.90
24518;DHT22;12678;51.336;12.406;2024-01-10T03:21:23;-8.10;99.90
24518;DHT22;12678;51.336;12.406;2024-01-10T03:24:00;-8.00;99.90
24518;DHT22;12678;51.336;12.406;2024-01-10T03:26:27;-8.00;99.90
24518;DHT22;12678;51.336;12.406;2024-01-10T03:28:53;-7.90;99.90
24518;DHT22;12678;51.336;12.406;2024-01-10T03:31:19;-7.90;99.90
24518;DHT22;12678;51.336;12.406;2024-01-10T03:33:45;-8.00;99.90
24518;DHT22;12678;51.336;12.406;2024-01-10T03:36:12;-8.00;99.90
24518;DHT22;12678;51.336;12.406;2024-01-10T03:38:39;-8.10;99.90
24518;DHT22;12678;51.336;12.406;2024-01-10T03:41:04;-8.10;99.90
24518;DHT22;12678;51.336;12.406;2024-01-10T03:43:30;-8.10;99.90
24518;DHT22;12678;51.336;12.406;2024-01-10T03:45:56;-8.00;99.90
24518;DHT22;12678;51.336;12.406;2024-01-10T03:48:22;-8.10;99.90
24518;DHT22;12678;51.336;12.406;2024-01-10T03:50:47;-8.10;99.90
24518;DHT22;12678;51.336;12.406;2024-01-10T03:53:13;-8.10;99.90
24518;DHT22;12678;51.336;12.406;2024-01-10T03:55:38;-8.00;99.90
24518;DHT22;12678;51.336;12.406;2024-01-10T03:58:04;-8.10;99.90
24518;DHT22;12678;51.336;12.406;2024-01-10T04:00:30;-8.00;99.90
24518;DHT22;12678;51.336;12.406;2024-01-10T04:02:56;-8.00;99.90
24518;DHT22;12678;51.336;12.406;2024-01-10T04:05:21;-8.10;99.90
24518;DHT22;12678;51.336;12.406;2024-01-10T04:07:47;-8.00;99.90
24518;DHT22;12678;51.336;12.406;2024-01-10T04:10:13;-8.10;99.90
24518;DHT22;12678;51.336;12.406;2024-01-10T04:12:49;-8.20;99.90
24518;DHT22;12678;51.336;12.406;2024-01-10T04:15:15;-8.10;99.90
24518;DHT22;12678;51.336;12.406;2024-01-10T04:17:40;-8.00;99.90
24518;DHT22;12678;51.336;12.406;2024-01-10T04:20:07;-8.10;99.90
24518;DHT22;12678;51.336;12.406;2024-01-10T04:22:32;-8.00;99.90
24518;DHT22;12678;51.336;12.406;2024-01-10T04:24:59;-8.10;99.90
24518;DHT22;12678;51.336;12.406;2024-01-10T04:27:25;-8.00;99.90
24518;DHT22;12678;51.336;12.406;2024-01-10T04:29:51;-8.00;99.90
24518;DHT22;12678;51.336;12.406;2024-01-10T04:32:17;-8.00;99.90
24518;DHT22;12678;51.336;12.406;2024-01-10T04:34:42;-8.10;99.90
24518;DHT22;12678;51.336;12.406;2024-01-10T04:37:08;-8.20;99.90
24518;DHT22;12678;51.336;12.406;2024-01-10T04:39:34;-8.20;99.90
24518;DHT22;12678;51.336;12.406;2024-01-10T04:41:59;-8.10;99.90
24518;DHT22;12678;51.336;12.406;2024-01-10T04:44:25;-8.10;99.90
24518;DHT22;12678;51.336;12.406;2024-01-10T04:46:51;-8.00;99.90
24518;DHT22;12678;51.336;12.406;2024-01-10T04:49:16;-8.00;99.90
24518;DHT22;12678;51.336;12.406;2024-01-10T04:51:42;-8.00;99.90
24518;DHT22;12678;51.336;12.406;2024-01-10T04:54:08;-8.00;99.90
24518;DHT22;12678;51.336;12.406;2024-01-10T04:56:34;-8.00;99.90
24518;DHT22;12678;51.336;12.406;2024-01-10T04:59:02;-8.10;99.90
24518;DHT22;12678;51.336;12.406;2024-01-10T05:01:27;-8.10;99.90
24518;DHT22;12678;51.336;12.406;2024-01-10T05:03:53;-8.10;99.90
24518;DHT22;12678;51.336;12.406;2024-01-10T05:06:18;-8.10;99.90
24518;DHT22;12678;51.336;12.406;2024-01-10T05:08:44;-8.10;99.90
24518;DHT22;12678;51.336;12.406;2024-01-10T05:11:09;-8.10;99.90
24518;DHT22;12678;51.336;12.406;2024-01-10T05:13:35;-8.20;99.90
24518;DHT22;12678;51.336;12.406;2024-01-10T05:16:00;-8.20;99.90
24518;DHT22;12678;51.336;12.406;2024-01-10T05:18:26;-8.10;99.90
24518;DHT22;12678;51.336;12.406;2024-01-10T05:20:52;-8.20;99.90
24518;DHT22;12678;51.336;12.406;2024-01-10T05:23:17;-8.10;99.90
24518;DHT22;12678;51.336;12.406;2024-01-10T05:25:43;-8.10;99.90
24518;DHT22;12678;51.336;12.406;2024-01-10T05:28:08;-8.00;99.90
24518;DHT22;12678;51.336;12.406;2024-01-10T05:30:34;-8.00;99.90
24518;DHT22;12678;51.336;12.406;2024-01-10T05:33:00;-8.00;99.90
24518;DHT22;12678;51.336;12.406;2024-01-10T05:35:26;-8.00;99.90
24518;DHT22;12678;51.336;12.406;2024-01-10T05:37:52;-8.00;99.90
24518;DHT22;12678;51.336;12.406;2024-01-10T05:40:18;-8.00;99.90
24518;DHT22;12678;51.336;12.406;2024-01-10T05:42:44;-8.00;99.90
24518;DHT22;12678;51.336;12.406;2024-01-10T05:45:10;-8.00;99.90
24518;DHT22;12678;51.336;12.406;2024-01-10T05:47:35;-8.10;99.90
24518;DHT22;12678;51.336;12.406;2024-01-10T05:50:01;-8.10;99.90
24518;DHT22;12678;51.336;12.406;2024-01-10T05:52:27;-8.00;99.90
24518;DHT22;12678;51.336;12.406;2024-01-10T05:54:53;-8.00;99.90
24518;DHT22;12678;51.336;12.406;2024-01-10T05:57:19;-8.00;99.90
24518;DHT22;12678;51.336;12.406;2024-01-10T05:59:44;-8.00;99.90
24518;DHT22;12678;51.336;12.406;2024-01-10T06:02:10;-8.00;99.90
24518;DHT22;12678;51.336;12.406;2024-01-10T06:04:35;-8.00;99.90
24518;DHT22;12678;51.336;12.406;2024-01-10T06:07:01;-8.00;99.90
24518;DHT22;12678;51.336;12.406;2024-01-10T06:09:27;-8.00;99.90
24518;DHT22;12678;51.336;12.406;2024-01-10T06:11:52;-8.10;99.90
24518;DHT22;12678;51.336;12.406;2024-01-10T06:14:18;-8.20;99.90
24518;DHT22;12678;51.336;12.406;2024-01-10T06:16:44;-8.10;99.90
24518;DHT22;12678;51.336;12.406;2024-01-10T06:19:13;-8.10;99.90
24518;DHT22;12678;51.336;12.406;2024-01-10T06:21:38;-8.10;99.90
24518;DHT22;12678;51.336;12.406;2024-01-10T06:24:04;-8.10;99.90
24518;DHT22;12678;51.336;12.406;2024-01-10T06:26:30;-8.20;99.90
24518;DHT22;12678;51.336;12.406;2024-01-10T06:28:56;-8.20;99.90
24518;DHT22;12678;51.336;12.406;2024-01-10T06:31:21;-8.20;99.90
24518;DHT22;12678;51.336;12.406;2024-01-10T06:33:47;-8.10;99.90
24518;DHT22;12678;51.336;12.406;2024-01-10T06:36:13;-8.20;99.90
24518;DHT22;12678;51.336;12.406;2024-01-10T06:38:39;-8.20;99.90
24518;DHT22;12678;51.336;12.406;2024-01-10T06:41:11;-8.30;99.90
24518;DHT22;12678;51.336;12.406;2024-01-10T06:43:39;-8.20;99.90
24518;DHT22;12678;51.336;12.406;2024-01-10T06:46:06;-8.30;99.90
24518;DHT22;12678;51.336;12.406;2024-01-10T06:48:32;-8.30;99.90
24518;DHT22;12678;51.336;12.406;2024-01-10T06:50:59;-8.30;99.90
24518;DHT22;12678;51.336;12.406;2024-01-10T06:53:24;-8.40;99.90
24518;DHT22;12678;51.336;12.406;2024-01-10T06:55:50;-8.30;99.90
24518;DHT22;12678;51.336;12.406;2024-01-10T06:58:16;-8.40;99.90
24518;DHT22;12678;51.336;12.406;2024-01-10T07:00:41;-8.40;99.90
24518;DHT22;12678;51.336;12.406;2024-01-10T07:03:07;-8.50;99.90
24518;DHT22;12678;51.336;12.406;2024-01-10T07:05:33;-8.40;99.90
24518;DHT22;12678;51.336;12.406;2024-01-10T07:07:59;-8.40;99.90
24518;DHT22;12678;51.336;12.406;2024-01-10T07:10:28;-8.40;99.90
24518;DHT22;12678;51.336;12.406;2024-01-10T07:12:54;-8.50;99.90
24518;DHT22;12678;51.336;12.406;2024-01-10T07:15:21;-8.40;99.90
24518;DHT22;12678;51.336;12.406;2024-01-10T07:17:46;-8.30;99.90
24518;DHT22;12678;51.336;12.406;2024-01-10T07:20:12;-8.30;99.90
24518;DHT22;12678;51.336;12.406;2024-01-10T07:22:38;-8.30;99.90
24518;DHT22;12678;51.336;12.406;2024-01-10T07:25:09;-8.30;99.90
24518;DHT22;12678;51.336;12.406;2024-01-10T07:27:35;-8.30;99.90
24518;DHT22;12678;51.336;12.406;2024-01-10T07:30:06;-8.50;99.90
24518;DHT22;12678;51.336;12.406;2024-01-10T07:32:39;-8.50;99.90
24518;DHT22;12678;51.336;12.406;2024-01-10T07:35:05;-8.50;99.90
24518;DHT22;12678;51.336;12.406;2024-01-10T07:37:37;-8.40;99.90
24518;DHT22;12678;51.336;12.406;2024-01-10T07:40:04;-8.30;99.90
24518;DHT22;12678;51.336;12.406;2024-01-10T07:42:39;-8.30;99.90
24518;DHT22;12678;51.336;12.406;2024-01-10T07:45:08;-8.30;99.90
24518;DHT22;12678;51.336;12.406;2024-01-10T07:47:34;-8.40;99.90
24518;DHT22;12678;51.336;12.406;2024-01-10T07:50:07;-8.40;99.90
24518;DHT22;12678;51.336;12.406;2024-01-10T07:52:33;-8.40;99.90
24518;DHT22;12678;51.336;12.406;2024-01-10T07:54:59;-8.40;99.90
24518;DHT22;12678;51.336;12.406;2024-01-10T07:57:25;-8.50;99.90
24518;DHT22;12678;51.336;12.406;2024-01-10T07:59:50;-8.40;99.90
24518;DHT22;12678;51.336;12.406;2024-01-10T08:02:16;-8.30;99.90
24518;DHT22;12678;51.336;12.406;2024-01-10T08:04:42;-8.20;99.90
24518;DHT22;12678;51.336;12.406;2024-01-10T08:07:07;-8.20;99.90
24518;DHT22;12678;51.336;12.406;2024-01-10T08:09:33;-8.20;99.90
24518;DHT22;12678;51.336;12.406;2024-01-10T08:11:59;-8.20;99.90
24518;DHT22;12678;51.336;12.406;2024-01-10T08:14:24;-8.20;99.90
24518;DHT22;12678;51.336;12.406;2024-01-10T08:16:50;-8.10;99.90
24518;DHT22;12678;51.336;12.406;2024-01-10T08:19:18;-7.90;99.90
24518;DHT22;12678;51.336;12.406;2024-01-10T08:21:44;-7.90;99.90
24518;DHT22;12678;51.336;12.406;2024-01-10T08:24:09;-7.80;99.90
24518;DHT22;12678;51.336;12.406;2024-01-10T08:26:35;-7.80;99.90
24518;DHT22;12678;51.336;12.406;2024-01-10T08:29:00;-7.90;99.90
24518;DHT22;12678;51.336;12.406;2024-01-10T08:31:26;-7.90;99.90
24518;DHT22;12678;51.336;12.406;2024-01-10T08:33:52;-7.80;99.90
24518;DHT22;12678;51.336;12.406;2024-01-10T08:36:18;-7.70;99.90
24518;DHT22;12678;51.336;12.406;2024-01-10T08:38:43;-7.70;99.90
24518;DHT22;12678;51.336;12.406;2024-01-10T08:41:09;-7.60;99.90
24518;DHT22;12678;51.336;12.406;2024-01-10T08:43:37;-7.60;99.90
24518;DHT22;12678;51.336;12.406;2024-01-10T08:46:02;-7.60;99.90
24518;DHT22;12678;51.336;12.406;2024-01-10T08:48:28;-7.50;99.90
24518;DHT22;12678;51.336;12.406;2024-01-10T08:50:53;-7.40;99.90
24518;DHT22;12678;51.336;12.406;2024-01-10T08:53:21;-7.40;99.90
24518;DHT22;12678;51.336;12.406;2024-01-10T08:55:47;-7.30;99.90
24518;DHT22;12678;51.336;12.406;2024-01-10T08:58:13;-7.30;99.90
24518;DHT22;12678;51.336;12.406;2024-01-10T09:00:39;-7.20;99.90
24518;DHT22;12678;51.336;12.406;2024-01-10T09:03:04;-7.20;99.90
24518;DHT22;12678;51.336;12.406;2024-01-10T09:05:30;-7.10;99.90
24518;DHT22;12678;51.336;12.406;2024-01-10T09:07:55;-7.10;99.90
24518;DHT22;12678;51.336;12.406;2024-01-10T09:10:22;-7.10;99.90
24518;DHT22;12678;51.336;12.406;2024-01-10T09:12:47;-7.00;99.90
24518;DHT22;12678;51.336;12.406;2024-01-10T09:15:14;-6.90;99.90
24518;DHT22;12678;51.336;12.406;2024-01-10T09:17:41;-6.80;99.90
24518;DHT22;12678;51.336;12.406;2024-01-10T09:20:07;-6.80;99.90
24518;DHT22;12678;51.336;12.406;2024-01-10T09:22:33;-6.90;99.90
24518;DHT22;12678;51.336;12.406;2024-01-10T09:24:59;-6.90;99.90
24518;DHT22;12678;51.336;12.406;2024-01-10T09:27:29;-6.80;99.90
24518;DHT22;12678;51.336;12.406;2024-01-10T09:29:55;-6.80;99.90
24518;DHT22;12678;51.336;12.406;2024-01-10T09:32:21;-6.70;99.90
24518;DHT22;12678;51.336;12.406;2024-01-10T09:34:47;-6.70;99.90
24518;DHT22;12678;51.336;12.406;2024-01-10T09:37:13;-6.70;99.90
24518;DHT22;12678;51.336;12.406;2024-01-10T09:39:38;-6.60;99.90
24518;DHT22;12678;51.336;12.406;2024-01-10T09:42:04;-6.50;99.90
24518;DHT22;12678;51.336;12.406;2024-01-10T09:44:30;-6.50;99.90
24518;DHT22;12678;51.336;12.406;2024-01-10T09:46:56;-6.60;99.90
24518;DHT22;12678;51.336;12.406;2024-01-10T09:49:21;-6.40;99.90
24518;DHT22;12678;51.336;12.406;2024-01-10T09:51:53;-6.40;99.90
24518;DHT22;12678;51.336;12.406;2024-01-10T09:54:22;-6.30;99.90
24518;DHT22;12678;51.336;12.406;2024-01-10T09:56:49;-6.30;99.90
24518;DHT22;12678;51.336;12.406;2024-01-10T09:59:15;-6.20;99.90
24518;DHT22;12678;51.336;12.406;2024-01-10T10:01:41;-6.20;99.90
24518;DHT22;12678;51.336;12.406;2024-01-10T10:04:11;-6.10;99.90
24518;DHT22;12678;51.336;12.406;2024-01-10T10:06:37;-6.10;99.90
24518;DHT22;12678;51.336;12.406;2024-01-10T10:09:02;-5.90;99.90
24518;DHT22;12678;51.336;12.406;2024-01-10T10:11:29;-5.90;99.90
24518;DHT22;12678;51.336;12.406;2024-01-10T10:13:55;-5.80;99.90
24518;DHT22;12678;51.336;12.406;2024-01-10T10:16:24;-5.70;99.90
24518;DHT22;12678;51.336;12.406;2024-01-10T10:18:51;-5.50;99.90
24518;DHT22;12678;51.336;12.406;2024-01-10T10:21:20;-5.40;99.90
24518;DHT22;12678;51.336;12.406;2024-01-10T10:23:59;-5.30;99.90
24518;DHT22;12678;51.336;12.406;2024-01-10T10:26:26;-5.20;99.90
24518;DHT22;12678;51.336;12.406;2024-01-10T10:28:52;-5.10;99.90
24518;DHT22;12678;51.336;12.406;2024-01-10T10:31:18;-5.00;99.90
24518;DHT22;12678;51.336;12.406;2024-01-10T10:33:45;-5.10;99.90
24518;DHT22;12678;51.336;12.406;2024-01-10T10:36:13;-5.00;99.90
24518;DHT22;12678;51.336;12.406;2024-01-10T10:38:39;-5.00;99.90
24518;DHT22;12678;51.336;12.406;2024-01-10T10:41:06;-5.00;99.90
24518;DHT22;12678;51.336;12.406;2024-01-10T10:43:36;-5.00;99.90
24518;DHT22;12678;51.336;12.406;2024-01-10T10:46:04;-4.90;99.90
24518;DHT22;12678;51.336;12.406;2024-01-10T10:48:33;-4.90;99.90
24518;DHT22;12678;51.336;12.406;2024-01-10T10:51:27;-4.80;99.90
24518;DHT22;12678;51.336;12.406;2024-01-10T10:53:54;-4.90;99.90
24518;DHT22;12678;51.336;12.406;2024-01-10T10:56:20;-5.10;99.90
24518;DHT22;12678;51.336;12.406;2024-01-10T10:58:46;-4.90;99.90
24518;DHT22;12678;51.336;12.406;2024-01-10T11:01:13;-4.90;99.90
24518;DHT22;12678;51.336;12.406;2024-01-10T11:03:40;-4.80;99.90
24518;DHT22;12678;51.336;12.406;2024-01-10T11:06:07;-4.80;99.90
24518;DHT22;12678;51.336;12.406;2024-01-10T11:09:17;-4.70;99.90
24518;DHT22;12678;51.336;12.406;2024-01-10T11:11:37;-4.60;99.90
24518;DHT22;12678;51.336;12.406;2024-01-10T11:19:21;-4.60;99.90
24518;DHT22;12678;51.336;12.406;2024-01-10T11:24:52;-4.20;99.90
24518;DHT22;12678;51.336;12.406;2024-01-10T11:27:18;-4.20;99.90
24518;DHT22;12678;51.336;12.406;2024-01-10T11:29:46;-4.10;99.90
24518;DHT22;12678;51.336;12.406;2024-01-10T11:32:15;-4.10;99.90
24518;DHT22;12678;51.336;12.406;2024-01-10T11:35:11;-4.00;99.90
24518;DHT22;12678;51.336;12.406;2024-01-10T11:37:44;-3.90;99.90
24518;DHT22;12678;51.336;12.406;2024-01-10T11:40:11;-3.90;99.90
24518;DHT22;12678;51.336;12.406;2024-01-10T11:42:45;-3.80;99.90
24518;DHT22;12678;51.336;12.406;2024-01-10T11:48:02;-3.70;99.90
24518;DHT22;12678;51.336;12.406;2024-01-10T11:50:28;-3.60;99.90
24518;DHT22;12678;51.336;12.406;2024-01-10T11:52:56;-3.60;99.90
24518;DHT22;12678;51.336;12.406;2024-01-10T11:55:47;-3.50;99.90
24518;DHT22;12678;51.336;12.406;2024-01-10T11:58:12;-3.50;99.90
24518;DHT22;12678;51.336;12.406;2024-01-10T12:00:39;-3.40;99.90
24518;DHT22;12678;51.336;12.406;2024-01-10T12:03:07;-3.40;99.90
24518;DHT22;12678;51.336;12.406;2024-01-10T12:05:34;-3.40;99.90
24518;DHT22;12678;51.336;12.406;2024-01-10T12:08:00;-3.40;99.90
24518;DHT22;12678;51.336;12.406;2024-01-10T12:10:26;-3.40;99.90
24518;DHT22;12678;51.336;12.406;2024-01-10T12:12:52;-3.30;99.90
24518;DHT22;12678;51.336;12.406;2024-01-10T12:15:20;-3.30;99.90
24518;DHT22;12678;51.336;12.406;2024-01-10T12:17:46;-3.20;99.90
24518;DHT22;12678;51.336;12.406;2024-01-10T12:20:11;-3.20;99.90
24518;DHT22;12678;51.336;12.406;2024-01-10T12:22:37;-3.10;99.90
24518;DHT22;12678;51.336;12.406;2024-01-10T12:25:06;-3.00;99.90
24518;DHT22;12678;51.336;12.406;2024-01-10T12:27:32;-3.00;99.90
24518;DHT22;12678;51.336;12.406;2024-01-10T12:30:00;-3.10;99.90
24518;DHT22;12678;51.336;12.406;2024-01-10T12:32:28;-3.10;99.90
24518;DHT22;12678;51.336;12.406;2024-01-10T12:35:04;-3.10;99.90
24518;DHT22;12678;51.336;12.406;2024-01-10T12:37:32;-3.10;99.90
24518;DHT22;12678;51.336;12.406;2024-01-10T12:39:58;-3.10;99.90
24518;DHT22;12678;51.336;12.406;2024-01-10T12:42:24;-3.00;99.90
24518;DHT22;12678;51.336;12.406;2024-01-10T12:44:49;-2.90;99.90
24518;DHT22;12678;51.336;12.406;2024-01-10T12:47:19;-2.90;99.90
24518;DHT22;12678;51.336;12.406;2024-01-10T12:49:45;-2.90;99.90
24518;DHT22;12678;51.336;12.406;2024-01-10T12:52:12;-2.90;99.90
24518;DHT22;12678;51.336;12.406;2024-01-10T12:54:39;-2.80;99.90
24518;DHT22;12678;51.336;12.406;2024-01-10T12:57:05;-2.90;99.90
24518;DHT22;12678;51.336;12.406;2024-01-10T12:59:31;-2.80;99.90
24518;DHT22;12678;51.336;12.406;2024-01-10T13:01:56;-2.80;99.90
24518;DHT22;12678;51.336;12.406;2024-01-10T13:04:22;-2.80;99.90
24518;DHT22;12678;51.336;12.406;2024-01-10T13:06:48;-2.80;99.90
24518;DHT22;12678;51.336;12.406;2024-01-10T13:09:13;-2.70;99.90
24518;DHT22;12678;51.336;12.406;2024-01-10T13:11:39;-2.60;99.90
24518;DHT22;12678;51.336;12.406;2024-01-10T13:14:04;-2.50;99.90
24518;DHT22;12678;51.336;12.406;2024-01-10T13:16:30;-2.60;99.90
24518;DHT22;12678;51.336;12.406;2024-01-10T13:18:56;-2.60;99.90
24518;DHT22;12678;51.336;12.406;2024-01-10T13:21:22;-2.50;99.90
24518;DHT22;12678;51.336;12.406;2024-01-10T13:23:48;-2.50;99.90
24518;DHT22;12678;51.336;12.406;2024-01-10T13:26:14;-2.50;99.90
24518;DHT22;12678;51.336;12.406;2024-01-10T13:28:40;-2.40;99.90
24518;DHT22;12678;51.336;12.406;2024-01-10T13:31:06;-2.30;99.90
24518;DHT22;12678;51.336;12.406;2024-01-10T13:33:31;-2.30;99.90
24518;DHT22;12678;51.336;12.406;2024-01-10T13:35:57;-2.40;99.90
24518;DHT22;12678;51.336;12.406;2024-01-10T13:38:23;-2.30;99.90
24518;DHT22;12678;51.336;12.406;2024-01-10T13:40:49;-2.30;99.90
24518;DHT22;12678;51.336;12.406;2024-01-10T13:43:15;-2.20;99.90
24518;DHT22;12678;51.336;12.406;2024-01-10T13:45:41;-2.30;99.90
24518;DHT22;12678;51.336;12.406;2024-01-10T13:48:08;-2.30;99.90
24518;DHT22;12678;51.336;12.406;2024-01-10T13:50:35;-2.30;99.90
24518;DHT22;12678;51.336;12.406;2024-01-10T13:53:01;-2.30;99.90
24518;DHT22;12678;51.336;12.406;2024-01-10T13:55:28;-2.30;99.90
24518;DHT22;12678;51.336;12.406;2024-01-10T13:57:53;-2.20;99.90
24518;DHT22;12678;51.336;12.406;2024-01-10T14:00:20;-2.20;99.90
24518;DHT22;12678;51.336;12.406;2024-01-10T14:02:45;-2.20;99.90
24518;DHT22;12678;51.336;12.406;2024-01-10T14:05:11;-2.20;99.90
24518;DHT22;12678;51.336;12.406;2024-01-10T14:07:36;-2.10;99.90
24518;DHT22;12678;51.336;12.406;2024-01-10T14:10:03;-2.00;99.90
24518;DHT22;12678;51.336;12.406;2024-01-10T14:12:29;-2.00;99.90
24518;DHT22;12678;51.336;12.406;2024-01-10T14:14:55;-2.00;99.90
24518;DHT22;12678;51.336;12.406;2024-01-10T14:17:21;-2.00;99.90
24518;DHT22;12678;51.336;12.406;2024-01-10T14:19:47;-2.00;99.90
24518;DHT22;12678;51.336;12.406;2024-01-10T14:22:15;-2.00;99.90
24518;DHT22;12678;51.336;12.406;2024-01-10T14:24:43;-2.00;99.90
24518;DHT22;12678;51.336;12.406;2024-01-10T14:27:08;-2.00;99.90
24518;DHT22;12678;51.336;12.406;2024-01-10T14:29:34;-2.00;99.90
24518;DHT22;12678;51.336;12.406;2024-01-10T14:32:00;-2.00;99.90
24518;DHT22;12678;51.336;12.406;2024-01-10T14:34:25;-2.00;99.90
24518;DHT22;12678;51.336;12.406;2024-01-10T14:36:51;-1.90;99.90
24518;DHT22;12678;51.336;12.406;2024-01-10T14:39:17;-1.90;99.90
24518;DHT22;12678;51.336;12.406;2024-01-10T14:41:43;-2.00;99.90
24518;DHT22;12678;51.336;12.406;2024-01-10T14:44:10;-2.00;99.90
24518;DHT22;12678;51.336;12.406;2024-01-10T14:46:35;-2.00;99.90
24518;DHT22;12678;51.336;12.406;2024-01-10T14:49:01;-2.10;99.90
24518;DHT22;12678;51.336;12.406;2024-01-10T14:51:27;-2.00;99.90
24518;DHT22;12678;51.336;12.406;2024-01-10T14:53:52;-2.00;99.90
24518;DHT22;12678;51.336;12.406;2024-01-10T14:56:18;-1.90;99.90
24518;DHT22;12678;51.336;12.406;2024-01-10T14:58:44;-1.90;99.90
24518;DHT22;12678;51.336;12.406;2024-01-10T15:01:10;-2.00;99.90
24518;DHT22;12678;51.336;12.406;2024-01-10T15:03:35;-2.00;99.90
24518;DHT22;12678;51.336;12.406;2024-01-10T15:06:03;-2.00;99.90
24518;DHT22;12678;51.336;12.406;2024-01-10T15:08:28;-2.00;99.90
24518;DHT22;12678;51.336;12.406;2024-01-10T15:10:54;-2.00;99.90
24518;DHT22;12678;51.336;12.406;2024-01-10T15:13:19;-2.10;99.90
24518;DHT22;12678;51.336;12.406;2024-01-10T15:15:45;-2.10;99.90
24518;DHT22;12678;51.336;12.406;2024-01-10T15:18:11;-2.10;99.90
24518;DHT22;12678;51.336;12.406;2024-01-10T15:20:37;-2.20;99.90
24518;DHT22;12678;51.336;12.406;2024-01-10T15:23:02;-2.30;99.90